Time;durP1;ratioP1;P1;durP2;ratioP2;P2;SDS_P1;SDS_P2;PMS_P1;PMS_P2;Temp;Humidity;BMP_temperature;BMP_pressure;BME280_temperature;BME280_humidity;BME280_pressure;Samples;Min_cycle;Max_cycle;Signal;HPM_P1;HPM_P2
2023/06/27 00:03:11;;;;;;;1.75;1.10;;;;;;;17.42;44.23;100304.28;10472016;28;20124;-61
2023/06/27 00:08:15;;;;;;;1.40;0.90;;;;;;;17.31;44.39;100304.25;10473560;28;20479;-61
2023/06/27 00:13:17;;;;;;;1.48;1.10;;;;;;;17.16;44.72;100314.28;10472940;28;20040;-60
2023/06/27 00:18:21;;;;;;;1.48;1.10;;;;;;;17.12;45.08;100318.13;10472108;28;20727;-60
2023/06/27 00:23:33;;;;;;;3.15;1.02;;;;;;;17.10;45.23;100321.88;10471855;28;20079;-60
2023/06/27 00:28:35;;;;;;;1.60;1.02;;;;;;;17.06;45.31;100318.63;10471545;28;20084;-60
2023/06/27 00:33:37;;;;;;;2.22;0.93;;;;;;;17.07;45.09;100319.47;10471115;28;20060;-61
2023/06/27 00:38:41;;;;;;;1.80;1.10;;;;;;;17.10;45.02;100312.13;10470892;28;20570;-60
2023/06/27 00:43:43;;;;;;;1.15;0.90;;;;;;;17.12;44.93;100319.97;10469002;28;20044;-61
2023/06/27 00:48:45;;;;;;;1.48;1.02;;;;;;;17.18;44.64;100314.16;10469733;28;20129;-60
2023/06/27 00:53:47;;;;;;;1.40;1.00;;;;;;;17.02;45.10;100319.84;10468499;28;20051;-60
2023/06/27 00:58:50;;;;;;;0.80;0.80;;;;;;;16.92;45.57;100324.16;10468518;28;20045;-60
2023/06/27 01:03:55;;;;;;;5.30;1.02;;;;;;;16.77;45.99;100320.94;10456789;28;20051;-61
2023/06/27 01:09:03;;;;;;;2.03;1.10;;;;;;;16.69;46.28;100319.91;10467928;28;20102;-61
2023/06/27 01:14:08;;;;;;;2.58;1.15;;;;;;;16.49;46.07;100315.34;10468050;28;20093;-61
2023/06/27 01:19:12;;;;;;;1.05;0.85;;;;;;;16.13;46.50;100321.59;10468523;28;20048;-60
2023/06/27 01:24:14;;;;;;;1.92;1.00;;;;;;;16.09;46.63;100321.00;10468702;28;20059;-60
2023/06/27 01:29:16;;;;;;;1.88;0.95;;;;;;;15.80;46.92;100316.25;10468614;28;20047;-60
2023/06/27 01:34:24;;;;;;;2.75;1.20;;;;;;;15.85;48.02;100330.78;10468759;28;20803;-61
2023/06/27 01:39:32;;;;;;;1.42;1.00;;;;;;;16.02;47.24;100327.69;10466987;28;20048;-60
2023/06/27 01:44:35;;;;;;;1.55;1.10;;;;;;;16.08;47.40;100321.94;10466833;28;20051;-61
2023/06/27 01:49:37;;;;;;;2.40;1.08;;;;;;;15.93;47.43;100320.50;10466034;28;20057;-60
2023/06/27 01:54:43;;;;;;;2.78;1.00;;;;;;;15.74;48.95;100324.63;10467259;28;20164;-59
2023/06/27 01:59:46;;;;;;;2.88;1.33;;;;;;;15.72;48.67;100327.38;10465664;28;20044;-59
2023/06/27 02:04:48;;;;;;;1.58;1.13;;;;;;;15.65;48.62;100323.53;10473564;28;20098;-59
2023/06/27 02:09:50;;;;;;;1.98;1.00;;;;;;;15.35;49.53;100328.38;10473691;28;20504;-59
2023/06/27 02:14:52;;;;;;;2.33;1.00;;;;;;;15.24;49.54;100323.06;10471931;28;20835;-59
2023/06/27 02:19:54;;;;;;;1.17;1.00;;;;;;;15.30;49.68;100323.47;10455647;28;20083;-59
2023/06/27 02:24:56;;;;;;;1.27;0.90;;;;;;;15.48;49.33;100320.41;10475544;28;20111;-59
2023/06/27 02:29:58;;;;;;;1.25;1.00;;;;;;;15.49;49.73;100324.75;10472281;28;20148;-59
2023/06/27 02:35:00;;;;;;;1.35;1.08;;;;;;;15.49;49.91;100324.75;10473588;28;20056;-59
2023/06/27 02:40:02;;;;;;;4.28;1.20;;;;;;;15.51;50.22;100322.88;10475761;28;20048;-59
2023/06/27 02:45:05;;;;;;;1.38;1.02;;;;;;;15.10;50.81;100316.13;10439358;28;20045;-59
2023/06/27 02:50:07;;;;;;;2.63;1.25;;;;;;;15.07;51.12;100331.31;10474518;28;20048;-59
2023/06/27 02:55:09;;;;;;;1.75;1.23;;;;;;;15.23;51.08;100331.91;10474725;28;20052;-59
2023/06/27 03:00:12;;;;;;;2.50;1.30;;;;;;;15.17;51.31;100330.56;10476637;28;20045;-59
2023/06/27 03:05:14;;;;;;;1.75;1.10;;;;;;;15.16;51.48;100349.13;10476750;28;20045;-58
2023/06/27 03:10:17;;;;;;;1.85;1.05;;;;;;;15.20;51.53;100338.25;10473603;28;20068;-58
2023/06/27 03:15:19;;;;;;;1.38;1.00;;;;;;;15.27;51.59;100338.63;10474639;28;20045;-58
2023/06/27 03:20:22;;;;;;;1.48;1.17;;;;;;;15.34;51.34;100337.25;10474081;28;20044;-58
2023/06/27 03:25:24;;;;;;;2.00;1.05;;;;;;;15.41;51.36;100339.31;10474684;28;20048;-58
2023/06/27 03:30:26;;;;;;;1.63;1.20;;;;;;;15.39;51.28;100343.84;10468267;28;20052;-58
2023/06/27 03:35:28;;;;;;;3.47;1.38;;;;;;;15.48;51.03;100344.97;10455735;28;20753;-60
2023/06/27 03:40:30;;;;;;;3.33;1.30;;;;;;;15.49;51.11;100362.50;10439591;28;20053;-60
2023/06/27 03:45:35;;;;;;;2.03;1.20;;;;;;;15.64;50.65;100356.09;10455960;28;20062;-60
2023/06/27 03:50:37;;;;;;;2.72;1.23;;;;;;;15.66;50.63;100350.72;10470862;28;20045;-60
2023/06/27 03:55:40;;;;;;;2.30;1.30;;;;;;;15.67;50.71;100350.63;10471962;28;20049;-60
2023/06/27 04:00:43;;;;;;;3.70;1.23;;;;;;;15.74;50.54;100354.47;10470067;28;20044;-60
2023/06/27 04:05:46;;;;;;;2.58;1.20;;;;;;;15.82;50.36;100354.75;10470724;28;20048;-60
2023/06/27 04:10:48;;;;;;;1.25;0.90;;;;;;;15.77;50.50;100356.03;10470364;28;20045;-60
2023/06/27 04:15:50;;;;;;;3.03;1.30;;;;;;;15.77;50.53;100367.44;10469172;28;20408;-60
2023/06/27 04:20:52;;;;;;;1.98;1.15;;;;;;;16.03;50.13;100362.84;10470251;28;20094;-60
2023/06/27 04:26:07;;;;;;;1.10;0.93;;;;;;;16.15;50.13;100364.56;10472948;28;20143;-60
2023/06/27 04:31:11;;;;;;;3.15;1.05;;;;;;;16.26;49.73;100369.88;10458877;28;20047;-60
2023/06/27 04:36:15;;;;;;;1.88;1.10;;;;;;;17.26;48.67;100362.78;10471196;28;20045;-61
2023/06/27 04:41:17;;;;;;;1.58;1.05;;;;;;;19.17;45.90;100344.75;10470371;28;20132;-61
2023/06/27 04:46:19;;;;;;;2.40;1.20;;;;;;;19.19;45.37;100359.56;10483813;28;20109;-60
2023/06/27 04:51:21;;;;;;;1.60;1.13;;;;;;;19.22;45.50;100348.66;10470067;28;20056;-60
2023/06/27 04:56:23;;;;;;;1.48;1.17;;;;;;;19.62;44.63;100345.94;10471355;28;20052;-61
2023/06/27 05:01:27;;;;;;;2.85;1.10;;;;;;;21.20;42.58;100342.44;10468525;28;20122;-59
2023/06/27 05:06:29;;;;;;;1.67;1.10;;;;;;;21.20;42.04;100339.78;10468020;28;20041;-59
2023/06/27 05:11:31;;;;;;;1.52;1.20;;;;;;;20.66;42.80;100343.28;10468399;28;20052;-59
2023/06/27 05:16:33;;;;;;;1.65;1.10;;;;;;;20.63;42.56;100343.56;10467770;28;20060;-59
2023/06/27 05:21:35;;;;;;;1.27;1.00;;;;;;;;;;10467767;28;20040;-59
2023/06/27 05:26:37;;;;;;;1.33;1.10;;;;;;;21.01;41.74;100348.69;10468067;28;20117;-59
2023/06/27 05:31:40;;;;;;;1.35;1.00;;;;;;;20.99;41.65;100354.19;10469102;28;20040;-59
2023/06/27 05:36:42;;;;;;;1.88;1.10;;;;;;;21.09;41.39;100346.97;10468633;28;20600;-60
2023/06/27 05:41:44;;;;;;;1.02;0.90;;;;;;;21.26;40.85;100355.16;10468279;28;20056;-61
2023/06/27 05:46:48;;;;;;;2.05;0.98;;;;;;;21.52;40.53;100342.81;10467062;28;20431;-60
2023/06/27 05:51:51;;;;;;;1.80;1.00;;;;;;;21.30;40.55;100354.69;10468773;28;20175;-60
2023/06/27 05:56:52;;;;;;;2.33;1.20;;;;;;;21.05;40.59;100358.91;10468825;28;20424;-60
2023/06/27 06:01:55;;;;;;;1.15;0.80;;;;;;;21.19;40.23;100354.09;10468652;28;20480;-60
2023/06/27 06:06:59;;;;;;;2.65;1.00;;;;;;;20.94;40.50;100359.13;10461289;28;20123;-60
2023/06/27 06:12:02;;;;;;;2.33;1.05;;;;;;;20.78;40.63;100356.25;10458077;28;20057;-60
2023/06/27 06:17:04;;;;;;;2.97;1.40;;;;;;;21.18;40.05;100352.41;10461864;28;20465;-60
2023/06/27 06:22:07;;;;;;;2.25;1.10;;;;;;;21.49;39.38;100353.78;10464676;28;20051;-60
2023/06/27 06:27:09;;;;;;;2.55;1.10;;;;;;;21.53;39.12;100352.47;10462440;28;20068;-60
2023/06/27 06:32:11;;;;;;;1.90;1.10;;;;;;;21.71;38.96;100348.84;10466304;28;20114;-60
2023/06/27 06:37:14;;;;;;;1.58;0.95;;;;;;;22.00;38.28;100350.41;10470249;28;20894;-60
2023/06/27 06:42:16;;;;;;;1.67;1.10;;;;;;;22.26;38.43;100353.97;10474435;28;20246;-60
2023/06/27 06:47:18;;;;;;;1.25;0.98;;;;;;;23.26;37.25;100345.16;10470824;28;20415;-60
2023/06/27 06:52:21;;;;;;;1.65;1.20;;;;;;;24.26;36.38;100358.31;10459767;28;20044;-60
2023/06/27 06:57:23;;;;;;;1.42;1.00;;;;;;;25.77;34.92;100339.09;10469275;28;20130;-60
2023/06/27 07:02:25;;;;;;;1.17;0.80;;;;;;;27.16;33.42;100329.50;10470012;28;20060;-60
2023/06/27 07:07:28;;;;;;;1.20;1.00;;;;;;;28.00;32.86;100328.72;10465928;28;20733;-60
2023/06/27 07:12:31;;;;;;;1.40;1.02;;;;;;;28.88;31.17;100320.88;10472446;28;20056;-61
2023/06/27 07:17:33;;;;;;;1.55;0.90;;;;;;;29.42;30.05;100313.63;10468860;28;20048;-62
2023/06/27 07:22:35;;;;;;;1.50;0.90;;;;;;;28.36;30.34;100318.66;10471153;28;20056;-61
2023/06/27 07:27:37;;;;;;;2.00;1.00;;;;;;;28.87;29.67;100303.03;10468636;28;20469;-61
2023/06/27 07:32:40;;;;;;;1.55;0.85;;;;;;;28.99;27.71;100304.16;10470663;28;20059;-61
2023/06/27 07:37:42;;;;;;;1.73;1.05;;;;;;;28.92;28.70;100301.44;10467139;28;20057;-61
2023/06/27 07:42:44;;;;;;;1.58;0.95;;;;;;;29.78;26.95;100305.19;10469487;28;20052;-61
2023/06/27 07:47:46;;;;;;;3.58;1.10;;;;;;;29.92;27.81;100301.44;10463799;28;20049;-61
2023/06/27 07:52:48;;;;;;;1.17;1.08;;;;;;;30.51;27.07;100298.72;10468984;28;20508;-61
2023/06/27 07:57:50;;;;;;;1.67;1.02;;;;;;;30.31;27.10;100287.94;10464717;28;20049;-61
2023/06/27 08:02:52;;;;;;;3.28;0.90;;;;;;;30.38;26.66;100293.31;10460367;28;20051;-61
2023/06/27 08:07:55;;;;;;;1.27;1.00;;;;;;;30.26;25.70;100285.03;10458933;28;20104;-61
2023/06/27 08:12:57;;;;;;;1.27;1.00;;;;;;;30.55;25.77;100281.91;10468900;28;20048;-62
2023/06/27 08:18:00;;;;;;;1.30;0.90;;;;;;;30.49;25.71;100276.50;10466603;28;20063;-62
2023/06/27 08:23:07;;;;;;;1.00;0.77;;;;;;;30.34;26.15;100273.19;10468772;28;20065;-61
2023/06/27 08:28:09;;;;;;;1.05;0.77;;;;;;;29.51;26.04;100274.66;10467464;28;20048;-62
2023/06/27 08:33:11;;;;;;;1.20;0.80;;;;;;;29.05;26.60;100263.75;10465004;28;20044;-61
2023/06/27 08:38:13;;;;;;;1.63;0.93;;;;;;;29.21;25.93;100261.72;10466264;28;20056;-61
2023/06/27 08:43:15;;;;;;;2.13;1.00;;;;;;;28.75;25.70;100259.69;10468499;28;20079;-61
2023/06/27 08:48:17;;;;;;;1.17;1.05;;;;;;;29.75;25.21;100239.00;10463852;28;20599;-61
2023/06/27 08:53:27;;;;;;;2.65;1.00;;;;;;;30.11;23.19;100237.75;10465535;28;20055;-61
2023/06/27 08:58:51;;;;;;;1.85;1.00;;;;;;;29.39;24.38;100243.13;10440270;28;20155;-61
2023/06/27 09:03:53;;;;;;;1.90;0.90;;;;;;;28.38;25.11;100243.97;10466975;28;20439;-61
2023/06/27 09:08:56;;;;;;;2.80;1.08;;;;;;;27.07;26.79;100247.38;10464793;28;20308;-60
2023/06/27 09:13:58;;;;;;;1.88;0.93;;;;;;;27.70;25.63;100246.56;10466126;28;20048;-61
2023/06/27 09:19:00;;;;;;;1.00;0.73;;;;;;;27.16;25.28;100252.47;10464096;28;20563;-61
2023/06/27 09:24:12;;;;;;;1.65;0.80;;;;;;;28.20;22.91;100222.13;10466803;28;20048;-61
2023/06/27 09:29:15;;;;;;;1.98;0.82;;;;;;;28.87;23.20;100217.72;10464079;28;20049;-61
2023/06/27 09:34:17;;;;;;;0.63;0.63;;;;;;;28.20;23.68;100220.25;10462906;28;20086;-61
2023/06/27 09:39:26;;;;;;;0.60;0.60;;;;;;;27.94;23.38;100230.03;10464495;28;20079;-61
2023/06/27 09:44:29;;;;;;;2.40;0.88;;;;;;;27.58;24.38;100229.31;10465099;28;20056;-60
2023/06/27 09:49:31;;;;;;;0.70;0.70;;;;;;;27.56;24.31;100231.34;10459958;28;20090;-61
2023/06/27 09:54:33;;;;;;;0.93;0.70;;;;;;;27.53;24.51;100235.25;10466036;28;20140;-61
2023/06/27 09:59:35;;;;;;;1.13;0.82;;;;;;;28.62;23.76;100231.91;10463412;28;20052;-61
2023/06/27 10:04:37;;;;;;;0.93;0.75;;;;;;;29.01;23.34;100232.88;10451014;28;20737;-61
2023/06/27 10:09:42;;;;;;;0.80;0.63;;;;;;;28.81;23.07;100220.34;10463266;28;20098;-61
2023/06/27 10:14:44;;;;;;;2.42;0.80;;;;;;;28.89;22.80;100223.72;10461796;28;20101;-61
2023/06/27 10:19:49;;;;;;;2.17;0.95;;;;;;;29.22;20.60;100209.50;10474907;28;20044;-61
2023/06/27 10:24:56;;;;;;;2.63;1.02;;;;;;;28.97;22.14;100203.88;10465446;28;20295;-62
2023/06/27 10:30:01;;;;;;;2.15;1.10;;;;;;;28.17;23.23;100214.47;10461267;28;20132;-60
2023/06/27 10:35:12;;;;;;;1.77;0.90;;;;;;;28.25;22.82;100212.44;10464478;28;20434;-61
2023/06/27 10:40:16;;;;;;;1.27;0.80;;;;;;;28.15;23.57;100211.16;10460811;28;20885;-62
2023/06/27 10:45:18;;;;;;;1.88;0.98;;;;;;;27.58;23.40;100221.25;10459462;28;20209;-61
2023/06/27 10:50:21;;;;;;;1.23;0.80;;;;;;;27.36;23.59;100210.50;10459058;28;20049;-61
2023/06/27 10:55:27;;;;;;;1.00;0.80;;;;;;;27.25;23.98;100208.34;10462366;28;20134;-61
2023/06/27 11:00:34;;;;;;;2.00;0.80;;;;;;;27.39;24.14;100204.75;10459851;28;20130;-61
2023/06/27 11:05:54;;;;;;;0.85;0.80;;;;;;;27.24;24.46;100197.81;10465120;28;20076;-61
2023/06/27 11:10:59;;;;;;;0.90;0.70;;;;;;;27.55;24.64;100200.97;10460816;28;21002;-61
2023/06/27 11:16:02;;;;;;;1.10;0.85;;;;;;;27.73;24.60;100203.22;10461811;28;20496;-61
2023/06/27 11:21:05;;;;;;;1.77;1.00;;;;;;;27.72;24.63;100197.00;10465078;28;20059;-61
2023/06/27 11:26:07;;;;;;;1.35;0.90;;;;;;;27.59;24.71;100201.38;10471051;28;20177;-62
2023/06/27 11:31:10;;;;;;;1.60;1.00;;;;;;;27.61;24.52;100200.19;10469202;28;20056;-61
2023/06/27 11:36:12;;;;;;;2.55;1.10;;;;;;;27.57;24.01;100190.84;10471046;28;20048;-61
2023/06/27 11:41:19;;;;;;;1.55;0.93;;;;;;;27.56;23.94;100186.50;10466925;28;20075;-61
2023/06/27 11:46:25;;;;;;;0.82;0.68;;;;;;;28.35;23.53;100181.69;10469655;28;20048;-61
2023/06/27 11:51:38;;;;;;;2.67;1.05;;;;;;;28.40;23.22;100177.34;10467347;28;20055;-61
2023/06/27 11:56:41;;;;;;;1.25;0.90;;;;;;;28.60;23.74;100170.22;10467161;28;21494;-62
2023/06/27 12:01:44;;;;;;;2.63;0.85;;;;;;;28.88;22.84;100162.84;10467606;28;20102;-62
2023/06/27 12:06:48;;;;;;;1.60;0.77;;;;;;;28.71;23.50;100158.00;10465730;28;20240;-61
2023/06/27 12:11:58;;;;;;;1.23;0.85;;;;;;;27.93;24.03;100153.09;10468553;28;20045;-61
2023/06/27 12:17:02;;;;;;;1.10;1.00;;;;;;;27.79;24.12;100159.44;10465283;28;20416;-62
2023/06/27 12:22:04;;;;;;;1.33;1.08;;;;;;;27.60;24.55;100152.00;10468379;28;20512;-61
2023/06/27 12:27:06;;;;;;;2.55;1.00;;;;;;;27.27;24.71;100147.22;10466404;28;20079;-61
2023/06/27 12:32:09;;;;;;;1.40;0.90;;;;;;;27.50;24.67;100136.25;10468741;28;20392;-61
2023/06/27 12:37:11;;;;;;;1.75;1.00;;;;;;;27.82;24.21;100130.28;10465859;28;20127;-61
2023/06/27 12:42:13;;;;;;;2.20;0.98;;;;;;;27.70;24.42;100131.00;10468618;28;20044;-61
2023/06/27 12:47:15;;;;;;;2.50;1.17;;;;;;;27.30;24.51;100138.75;10465248;28;20166;-61
2023/06/27 12:52:17;;;;;;;1.17;0.88;;;;;;;27.40;24.77;100125.81;10465103;28;20451;-61
2023/06/27 12:57:19;;;;;;;2.28;0.88;;;;;;;27.06;25.29;100117.66;10462267;28;20439;-61
2023/06/27 13:02:21;;;;;;;1.30;1.00;;;;;;;26.75;25.31;100124.41;10467590;28;20053;-61
2023/06/27 13:07:24;;;;;;;1.50;0.90;;;;;;;26.81;25.52;100121.78;10463935;28;20040;-60
2023/06/27 13:12:27;;;;;;;2.35;0.90;;;;;;;26.88;25.32;100129.88;10465770;28;20054;-61
2023/06/27 13:17:29;;;;;;;1.73;0.80;;;;;;;26.93;24.96;100122.09;10462418;28;20091;-61
2023/06/27 13:22:32;;;;;;;1.23;0.90;;;;;;;26.89;24.80;100121.66;10460237;28;20043;-61
2023/06/27 13:27:35;;;;;;;1.30;0.95;;;;;;;27.07;24.96;100119.34;10459399;28;20524;-61
2023/06/27 13:32:37;;;;;;;1.58;0.95;;;;;;;27.44;24.73;100110.97;10463366;28;20048;-61
2023/06/27 13:37:39;;;;;;;1.13;0.80;;;;;;;27.17;24.84;100119.03;10462040;28;20048;-61
2023/06/27 13:43:01;;;;;;;2.38;0.95;;;;;;;26.79;25.54;100115.78;10460871;28;20057;-60
2023/06/27 13:48:04;;;;;;;2.00;0.90;;;;;;;26.14;26.23;100115.00;10458714;28;20056;-61
2023/06/27 13:53:06;;;;;;;1.60;1.00;;;;;;;26.00;26.39;100108.63;10463082;28;20087;-60
2023/06/27 13:58:08;;;;;;;2.03;0.88;;;;;;;26.23;26.54;100103.13;10456777;28;20630;-61
2023/06/27 14:03:10;;;;;;;1.50;0.90;;;;;;;25.93;25.88;100096.97;10454966;28;20102;-60
2023/06/27 14:08:12;;;;;;;1.13;0.90;;;;;;;25.50;26.27;100090.59;10443334;28;20455;-60
2023/06/27 14:13:14;;;;;;;2.60;0.80;;;;;;;25.63;26.04;100079.25;10449745;28;20485;-61
2023/06/27 14:18:16;;;;;;;2.42;1.00;;;;;;;25.77;26.47;100079.22;10447518;28;20767;-60
2023/06/27 14:23:21;;;;;;;1.35;0.73;;;;;;;25.75;26.40;100065.16;10459690;28;20042;-60
2023/06/27 14:28:24;;;;;;;2.20;1.30;;;;;;;26.20;25.84;100064.13;10447601;28;20055;-60
2023/06/27 14:33:27;;;;;;;1.27;0.90;;;;;;;26.30;26.00;100066.50;10454734;28;20568;-61
2023/06/27 14:38:31;;;;;;;1.60;0.88;;;;;;;26.03;26.03;100062.69;10458987;28;20044;-60
2023/06/27 14:43:34;;;;;;;1.08;0.80;;;;;;;25.92;26.46;100060.44;10459855;28;20045;-61
2023/06/27 14:48:36;;;;;;;1.33;0.80;;;;;;;25.99;25.89;100058.72;10453595;28;20053;-61
2023/06/27 14:53:38;;;;;;;1.73;0.90;;;;;;;26.48;25.74;100040.09;10446320;28;20045;-60
2023/06/27 14:58:40;;;;;;;1.58;0.80;;;;;;;26.64;25.82;100042.56;10466899;28;20063;-60
2023/06/27 15:03:42;;;;;;;1.88;0.80;;;;;;;26.79;25.39;100034.44;10469800;28;20047;-60
2023/06/27 15:08:45;;;;;;;1.30;0.88;;;;;;;26.57;25.51;100039.81;10465566;28;20123;-60
2023/06/27 15:13:48;;;;;;;1.30;1.00;;;;;;;26.92;25.42;100030.00;10467491;28;20156;-61
2023/06/27 15:18:50;;;;;;;1.42;0.77;;;;;;;26.95;25.31;100018.88;10464318;28;20291;-61
2023/06/27 15:23:52;;;;;;;1.35;0.90;;;;;;;27.02;25.08;100033.16;10469260;28;20055;-61
2023/06/27 15:28:55;;;;;;;1.63;0.90;;;;;;;27.07;25.38;100016.47;10468339;28;20122;-61
2023/06/27 15:33:57;;;;;;;1.10;0.68;;;;;;;27.20;25.08;100020.13;10436831;28;20139;-60
2023/06/27 15:38:59;;;;;;;0.80;0.80;;;;;;;27.06;24.83;100025.53;10466894;28;20516;-60
2023/06/27 15:44:02;;;;;;;1.52;0.98;;;;;;;26.99;24.52;100024.69;10469798;28;20094;-60
2023/06/27 15:49:04;;;;;;;1.98;0.90;;;;;;;26.84;24.44;100021.25;10466032;28;20136;-60
2023/06/27 15:54:06;;;;;;;1.00;0.70;;;;;;;26.54;24.52;100010.66;10466178;28;20053;-60
2023/06/27 15:59:08;;;;;;;0.95;0.65;;;;;;;26.38;25.06;100023.50;10467391;28;20822;-60
2023/06/27 16:04:10;;;;;;;1.35;1.00;;;;;;;26.33;24.97;100010.66;10467944;28;20190;-60
2023/06/27 16:09:12;;;;;;;2.42;0.75;;;;;;;26.42;24.73;100008.69;10461662;28;20463;-60
2023/06/27 16:14:15;;;;;;;1.13;0.80;;;;;;;26.23;24.76;99996.72;10465102;28;20048;-60
2023/06/27 16:19:17;;;;;;;1.20;0.93;;;;;;;25.88;25.46;99990.31;10445973;28;20080;-60
2023/06/27 16:24:20;;;;;;;1.15;0.85;;;;;;;25.72;25.91;99985.19;10467753;28;20162;-60
2023/06/27 16:29:22;;;;;;;1.85;0.90;;;;;;;25.48;26.01;99988.19;10465378;28;20048;-60
2023/06/27 16:34:26;;;;;;;1.83;1.00;;;;;;;25.11;26.88;100004.28;10465918;28;20076;-61
2023/06/27 16:39:29;;;;;;;2.22;1.00;;;;;;;25.00;27.30;100007.41;10463859;28;20056;-61
2023/06/27 16:44:31;;;;;;;3.08;0.95;;;;;;;24.97;27.62;100002.44;10468118;28;20094;-61
2023/06/27 16:49:34;;;;;;;3.15;1.10;;;;;;;24.82;28.16;100010.41;10448109;28;20048;-60
2023/06/27 16:54:36;;;;;;;1.67;1.10;;;;;;;24.65;28.49;100021.41;10463415;28;20145;-61
2023/06/27 16:59:38;;;;;;;2.05;1.10;;;;;;;24.53;29.04;100020.97;10465164;28;20341;-61
2023/06/27 17:04:40;;;;;;;1.75;1.10;;;;;;;24.59;29.01;100016.78;10465366;28;20047;-60
2023/06/27 17:09:42;;;;;;;6.40;1.33;;;;;;;24.62;29.05;100021.75;10459334;28;20052;-60
2023/06/27 17:14:44;;;;;;;1.60;0.90;;;;;;;24.65;29.15;100016.91;10457435;28;20131;-61
2023/06/27 17:19:47;;;;;;;1.13;0.90;;;;;;;24.55;29.34;100013.63;10456797;28;20057;-61
2023/06/27 17:24:52;;;;;;;3.83;1.20;;;;;;;24.27;29.57;100015.16;10452585;28;20037;-61
2023/06/27 17:29:55;;;;;;;2.05;1.00;;;;;;;24.07;29.99;100014.78;10459721;28;20053;-62
2023/06/27 17:34:57;;;;;;;1.50;0.93;;;;;;;23.87;30.17;100026.91;10456327;28;20041;-62
2023/06/27 17:39:59;;;;;;;1.77;1.10;;;;;;;23.73;30.64;100018.78;10448890;28;20047;-61
2023/06/27 17:45:02;;;;;;;2.42;1.00;;;;;;;23.67;30.60;100022.16;10454912;28;20141;-61
2023/06/27 17:50:08;;;;;;;1.45;0.93;;;;;;;23.55;30.68;100029.72;10456975;28;20071;-61
2023/06/27 17:55:12;;;;;;;2.05;1.10;;;;;;;23.34;30.79;100040.91;10458178;28;20129;-61
2023/06/27 18:00:14;;;;;;;0.80;0.80;;;;;;;23.28;31.49;100049.59;10455581;28;20397;-60
2023/06/27 18:05:17;;;;;;;1.08;0.90;;;;;;;23.30;31.08;100041.41;10461270;28;20125;-61
2023/06/27 18:10:19;;;;;;;1.75;1.20;;;;;;;23.30;30.93;100049.41;10457761;28;20090;-61
2023/06/27 18:15:22;;;;;;;1.25;1.05;;;;;;;23.12;30.90;100044.28;10448972;28;20054;-61
2023/06/27 18:20:25;;;;;;;1.73;1.17;;;;;;;23.13;31.22;100039.75;10457836;28;20677;-60
2023/06/27 18:25:29;;;;;;;1.25;0.95;;;;;;;23.17;31.08;100047.28;10460850;28;20076;-61
2023/06/27 18:30:31;;;;;;;2.03;0.98;;;;;;;22.98;31.66;100052.16;10455305;28;20447;-61
2023/06/27 18:35:34;;;;;;;1.67;1.10;;;;;;;22.92;31.65;100048.31;10459009;28;20739;-60
2023/06/27 18:40:37;;;;;;;1.40;1.00;;;;;;;22.80;31.92;100048.81;10432031;28;20072;-61
2023/06/27 18:45:40;;;;;;;0.75;0.75;;;;;;;22.66;32.32;100055.59;10459209;28;20056;-60
2023/06/27 18:50:42;;;;;;;2.00;0.90;;;;;;;22.59;32.37;100052.78;10456861;28;20408;-60
2023/06/27 18:55:44;;;;;;;1.73;0.88;;;;;;;22.63;32.84;100058.59;10461366;28;20056;-61
2023/06/27 19:00:47;;;;;;;1.63;1.10;;;;;;;22.59;32.79;100068.78;10434615;28;20277;-60
2023/06/27 19:05:49;;;;;;;1.27;0.90;;;;;;;22.58;32.88;100077.75;10455134;28;20044;-60
2023/06/27 19:10:52;;;;;;;2.20;1.10;;;;;;;22.42;32.77;100067.06;10456289;28;20151;-61
2023/06/27 19:15:54;;;;;;;1.90;1.15;;;;;;;22.37;33.44;100061.38;10459413;28;20425;-60
2023/06/27 19:20:56;;;;;;;2.40;1.10;;;;;;;22.39;33.39;100075.38;10460889;28;20040;-60
2023/06/27 19:25:59;;;;;;;2.05;0.90;;;;;;;22.26;33.75;100080.38;10461141;28;20127;-60
2023/06/27 19:31:02;;;;;;;2.20;1.02;;;;;;;22.23;33.64;100082.53;10461598;28;20809;-61
2023/06/27 19:36:05;;;;;;;2.22;1.10;;;;;;;22.10;34.42;100077.66;10458988;28;20052;-61
2023/06/27 19:41:08;;;;;;;1.75;1.00;;;;;;;22.12;34.00;100078.31;10440498;28;20059;-61
2023/06/27 19:46:10;;;;;;;1.45;0.90;;;;;;;22.11;34.43;100084.63;10466522;28;20060;-61
2023/06/27 19:51:12;;;;;;;1.17;0.85;;;;;;;22.13;34.64;100081.84;10471277;28;20813;-62
2023/06/27 19:56:14;;;;;;;1.48;0.98;;;;;;;22.09;35.04;100086.63;10468777;28;20596;-61
2023/06/27 20:01:16;;;;;;;1.75;1.02;;;;;;;21.98;34.97;100094.91;10473108;28;20048;-62
2023/06/27 20:06:18;;;;;;;1.65;0.98;;;;;;;21.85;35.23;100098.00;10471885;28;20055;-62
2023/06/27 20:11:22;;;;;;;1.83;1.02;;;;;;;21.77;35.36;100100.63;10471568;28;20090;-61
2023/06/27 20:16:25;;;;;;;0.88;0.80;;;;;;;21.60;35.87;100112.16;10472555;28;20052;-61
2023/06/27 20:21:27;;;;;;;2.60;0.90;;;;;;;21.67;35.89;100107.06;10472186;28;20580;-61
2023/06/27 20:26:29;;;;;;;1.15;0.90;;;;;;;21.73;36.10;100099.28;10472244;28;20080;-61
2023/06/27 20:31:31;;;;;;;3.40;1.00;;;;;;;21.62;36.82;100104.03;10469060;28;20575;-61
2023/06/27 20:36:34;;;;;;;1.92;1.05;;;;;;;21.54;36.84;100117.28;10466084;28;20126;-61
2023/06/27 20:41:36;;;;;;;1.70;1.10;;;;;;;21.40;37.06;100113.38;10466790;28;20550;-61
2023/06/27 20:46:38;;;;;;;1.15;1.00;;;;;;;20.96;37.47;100133.78;10468217;28;20075;-61
2023/06/27 20:51:40;;;;;;;1.27;0.90;;;;;;;20.54;37.52;100143.28;10468715;28;20040;-61
2023/06/27 20:56:45;;;;;;;1.17;0.85;;;;;;;20.19;38.00;100151.22;10451878;28;20048;-61
2023/06/27 21:01:47;;;;;;;1.38;0.85;;;;;;;20.10;38.36;100157.38;10470253;28;20086;-61
2023/06/27 21:06:49;;;;;;;1.80;1.10;;;;;;;20.14;38.21;100151.63;10454329;28;20139;-61
2023/06/27 21:11:51;;;;;;;1.02;0.90;;;;;;;20.16;39.04;100149.66;10467196;28;20072;-61
2023/06/27 21:16:53;;;;;;;1.38;1.00;;;;;;;20.10;38.80;100149.41;10465379;28;20106;-61
2023/06/27 21:21:55;;;;;;;1.45;1.10;;;;;;;20.17;38.67;100158.47;10469671;28;20094;-61
2023/06/27 21:26:57;;;;;;;1.38;1.10;;;;;;;20.26;39.13;100144.31;10462657;28;20114;-61
2023/06/27 21:31:59;;;;;;;2.10;1.10;;;;;;;20.30;40.05;100151.00;10463838;28;20057;-61
2023/06/27 21:37:01;;;;;;;1.52;1.10;;;;;;;20.27;40.87;100146.81;10465511;28;20040;-61
2023/06/27 21:42:03;;;;;;;1.33;1.00;;;;;;;20.16;41.61;100149.66;10459546;28;20040;-61
2023/06/27 21:47:06;;;;;;;1.20;0.95;;;;;;;20.01;42.10;100142.34;10464807;28;20045;-61
2023/06/27 21:52:08;;;;;;;1.38;1.00;;;;;;;19.97;42.05;100154.25;10464696;28;20118;-61
2023/06/27 21:57:10;;;;;;;1.58;1.10;;;;;;;19.90;41.98;100150.47;10466256;28;20143;-61
2023/06/27 22:02:11;;;;;;;1.38;1.10;;;;;;;19.85;42.35;100150.06;10460651;28;20053;-61
2023/06/27 22:07:14;;;;;;;2.38;1.20;;;;;;;19.74;42.51;100143.13;10464427;28;20052;-61
2023/06/27 22:12:16;;;;;;;2.10;1.10;;;;;;;19.67;42.99;100146.47;10466417;28;20381;-61
2023/06/27 22:17:18;;;;;;;2.45;1.05;;;;;;;19.48;42.93;100144.72;10468221;28;20056;-61
2023/06/27 22:22:20;;;;;;;1.75;1.10;;;;;;;19.48;43.23;100130.63;10468500;28;20040;-61
2023/06/27 22:27:22;;;;;;;1.67;1.08;;;;;;;19.48;43.17;100127.97;10467560;28;20493;-61
2023/06/27 22:32:24;;;;;;;1.75;1.10;;;;;;;19.50;43.11;100128.66;10466438;28;20044;-61
2023/06/27 22:37:26;;;;;;;1.65;0.93;;;;;;;19.51;43.29;100125.84;10465974;28;20037;-61
2023/06/27 22:42:28;;;;;;;1.40;1.10;;;;;;;19.51;43.19;100119.72;10464909;28;20040;-62
2023/06/27 22:47:31;;;;;;;1.23;1.08;;;;;;;19.41;43.08;100125.88;10464999;28;20706;-61
2023/06/27 22:52:35;;;;;;;1.48;1.10;;;;;;;19.47;42.67;100129.78;10464872;28;20068;-61
2023/06/27 22:57:37;;;;;;;2.28;1.23;;;;;;;19.54;42.82;100130.03;10461711;28;20048;-61
2023/06/27 23:02:40;;;;;;;1.60;1.08;;;;;;;19.64;42.58;100125.53;10460138;28;20741;-61
2023/06/27 23:07:43;;;;;;;1.48;0.98;;;;;;;19.65;42.92;100132.50;10460577;28;20488;-61
2023/06/27 23:12:45;;;;;;;1.65;1.15;;;;;;;19.63;43.03;100129.16;10462727;28;20118;-61